Updated21/04/2019 2:50pm 
 

Nearby Airport METAR Reports

 

KVSF - Springfield, Vermont, USA
Distance from station: WSW 8mi, 12km
Updated: 04/21/2019 1:54pm
Overcast
Overcast
 Wind from varies
Wind: varies 7 mph , 11 km/h
Temperature: 63°F , 17°C
Dew Point: 52°F , 11°C
Humidity: 68%
Barometer: 30.01 inHg , 1016.3 hPa
Clouds: Overcast
Visibility: 10 miles , 16 km
Cloud details: Mostly cloudy 3200 ft
Overcast 3900 ft
2019/04/21 17:54 KVSF 211754Z AUTO VRB06KT 10SM BKN032 OVC039 17/11 A3001 RMK AO2 SLP164 60000 T01720106 10178 20128 56008
KLEB - Lebanon, New Hampshire, USA
Distance from station: N 18mi, 29km
Updated: 04/21/2019 1:53pm
Mostly cloudy
Mostly cloudy
 Wind from S
Wind: S 9 mph , 15 km/h, Gust: 16 mph , 26 km/h
Temperature: 66°F , 19°C
Dew Point: 48°F , 9°C
Humidity: 52%
Barometer: 29.99 inHg , 1015.6 hPa
Clouds: Mostly cloudy
Visibility: 10 miles , 16 km
Cloud details: Partly cloudy 3500 ft
Mostly cloudy 11000 ft
2019/04/21 17:53 KLEB 211753Z 18008G14KT 140V210 10SM SCT035 BKN110 19/09 A2999 RMK AO2 SLP151 T01940094 10200 20128 55003
KRUT - Rutland State, Vermont, USA
Distance from station: WNW 31mi, 50km
Updated: 04/21/2019 1:56pm
Few Clouds
Few Clouds
 Wind from ESE
Wind: ESE 14 mph , 22 km/h, Gust: 21 mph , 33 km/h
Temperature: 68°F , 20°C
Dew Point: 50°F , 10°C
Humidity: 53%
Barometer: 29.98 inHg , 1015.2 hPa
Clouds: Few Clouds
Visibility: 10 miles , 16 km
Cloud details: Few Clouds 4500 ft
2019/04/21 17:56 KRUT 211756Z AUTO 11012G18KT 10SM FEW045 20/10 A2998 RMK AO2 SLP165 T02000100 10200 20139 57003 $
 
KEEN - Keene/Dillant, New Hampshire, USA
Distance from station: S 34mi, 55km
Updated: 04/21/2019 2:28pm
Overcast
Overcast
 Wind from S
Wind: S 5 mph , 7 km/h
Temperature: 63°F , 17°C
Dew Point: 54°F , 12°C
Humidity: 73%
Barometer: 30.02 inHg , 1016.6 hPa
Clouds: Overcast
Visibility: 10 miles , 16 km
Cloud details: Partly cloudy 2600 ft
Mostly cloudy 3900 ft
Overcast 4800 ft
2019/04/21 18:28 KEEN 211828Z AUTO 18004KT 10SM SCT026 BKN039 OVC048 17/12 A3002 RMK AO2 PNO $
K1P1 - Plymouth, New Hampshire, USA
Distance from station: NE 42mi, 67km
Updated: 04/21/2019 2:55pm
Overcast
Overcast
 Wind from calm
Wind: Calm
Temperature: 64°F , 18°C
Dew Point: 54°F , 12°C
Humidity: 68%
Barometer: 30.00 inHg , 1015.9 hPa
Clouds: Overcast
Visibility: 10 miles , 16 km
Cloud details: Mostly cloudy 3000 ft
Overcast 3900 ft
2019/04/21 18:55 K1P1 211855Z AUTO 00000KT 10SM BKN030 OVC039 18/12 A3000 RMK AO2 T01800120
KAFN - Jaffrey, New Hampshire, USA
Distance from station: SSE 44mi, 70km
Updated: 04/21/2019 1:52pm
Mostly cloudy
Mostly cloudy
 Wind from SE
Wind: SE 6 mph , 9 km/h
Temperature: 64°F , 18°C
Dew Point: 54°F , 12°C
Humidity: 68%
Barometer: 30.01 inHg , 1016.3 hPa
Clouds: Mostly cloudy
Visibility: 10 miles , 16 km
Cloud details: Partly cloudy 2500 ft
Mostly cloudy 3000 ft
Mostly cloudy 9000 ft
2019/04/21 17:52 KAFN 211752Z AUTO 14005KT 10SM SCT025 BKN030 BKN090 18/12 A3001 RMK AO2 RAE04 SLP167 P0000 60001 T01830117 10183 20128 58007
 
KCON - Concord, New Hampshire, USA
Distance from station: ESE 45mi, 73km
Updated: 04/21/2019 2:31pm
Overcast
Overcast
 Wind from varies
Wind: varies 5 mph , 7 km/h
Temperature: 66°F , 19°C
Dew Point: 54°F , 12°C
Humidity: 64%
Barometer: 30.00 inHg , 1015.9 hPa
Clouds: Overcast
Visibility: 10 miles , 16 km
Cloud details: Mostly cloudy 2600 ft
Overcast 8500 ft
2019/04/21 18:31 KCON 211831Z AUTO VRB04KT 10SM BKN026 OVC085 19/12 A3000 RMK AO2 RAB06E26 P0000 T01940122 $
KLCI - Laconia Muni, New Hampshire, USA
Distance from station: ENE 49mi, 80km
Updated: 04/21/2019 1:56pm
Overcast
Overcast
 Wind from varies
Wind: varies 7 mph , 11 km/h
Temperature: 64°F , 18°C
Dew Point: 54°F , 12°C
Humidity: 68%
Barometer: 30.03 inHg , 1016.9 hPa
Clouds: Overcast
Visibility: 10 miles , 16 km
Cloud details: Mostly cloudy 3600 ft
Overcast 8500 ft
2019/04/21 17:56 KLCI 211756Z AUTO VRB06KT 10SM BKN036 OVC085 18/12 A3003 RMK AO2 SLP183 60001 T01830122 10183 20117 58001 PWINO $
KDDH - Bennington, Vermont, USA
Distance from station: SW 55mi, 89km
Updated: 04/21/2019 1:54pm
Mostly cloudy
Mostly cloudy
 Wind from ESE
Wind: ESE 10 mph , 17 km/h
Temperature: 64°F , 18°C
Dew Point: 48°F , 9°C
Humidity: 56%
Barometer: 29.99 inHg , 1015.6 hPa
Clouds: Mostly cloudy
Visibility: 10 miles , 16 km
Cloud details: Mostly cloudy 3900 ft
Mostly cloudy 4700 ft
2019/04/21 17:54 KDDH 211754Z AUTO 12009KT 10SM BKN039 BKN047 18/09 A2999 RMK AO2 SLP152 T01830089 10194 20144 55001
 
K6B0 - Middlebury, Vermont, USA
Distance from station: NW 56mi, 90km
Updated: 04/21/2019 2:35pm
Mostly cloudy
Mostly cloudy
 Wind from W
Wind: W 8 mph , 13 km/h
Temperature: 72°F , 22°C
Dew Point: 50°F , 10°C
Humidity: 47%
Barometer: 29.96 inHg , 1014.6 hPa
Clouds: Mostly cloudy
Visibility: 10 miles , 16 km
Cloud details: Mostly cloudy 8000 ft
2019/04/21 18:35 K6B0 211835Z AUTO 28007KT 10SM BKN080 22/10 A2996 RMK AO2 T02190103
KMHT - Manchester, New Hampshire, USA
Distance from station: ESE 56mi, 90km
Updated: 04/21/2019 1:53pm
Light rain, Overcast
Light rain, Overcast
 Wind from SSE
Wind: SSE 8 mph , 13 km/h
Temperature: 66°F , 19°C
Dew Point: 55°F , 13°C
Humidity: 68%
Barometer: 30.00 inHg , 1015.9 hPa
Summary: Light rain
Clouds: Overcast
Visibility: 10 miles , 16 km
Cloud details: Mostly cloudy 2300 ft
Overcast 7000 ft
2019/04/21 17:53 KMHT 211753Z 15007KT 10SM -RA BKN023 OVC070 19/13 A3000 RMK AO2 RAB49 SLP171 P0000 60000 T01940133 10194 20150 58006
KORE - Orange, Massachusetts, USA
Distance from station: S 56mi, 90km
Updated: 04/21/2019 1:52pm
Mostly cloudy
Mostly cloudy
 Wind from S
Wind: S 7 mph , 11 km/h
Temperature: 66°F , 19°C
Dew Point: 54°F , 12°C
Humidity: 64%
Barometer: 30.02 inHg , 1016.6 hPa
Clouds: Mostly cloudy
Visibility: 10 miles , 16 km
Cloud details: Partly cloudy 2200 ft
Partly cloudy 2700 ft
Mostly cloudy 3500 ft
2019/04/21 17:52 KORE 211752Z AUTO 19006KT 10SM SCT022 SCT027 BKN035 19/12 A3002 RMK AO2 RAE13 SLP168 P0001 60005 T01890122 10189 20128 56006 TSNO
 
KMPV - Montpelier/Barre, Vermont, USA
Distance from station: N 58mi, 93km
Updated: 04/21/2019 1:51pm
Mostly cloudy
Mostly cloudy
 Wind from S
Wind: S 12 mph , 19 km/h, Gust: 17 mph , 28 km/h
Temperature: 66°F , 19°C
Dew Point: 48°F , 9°C
Humidity: 52%
Barometer: 30.02 inHg , 1016.6 hPa
Clouds: Mostly cloudy
Visibility: 10 miles , 16 km
Cloud details: Mostly cloudy 4200 ft
2019/04/21 17:51 KMPV 211751Z AUTO 18010G15KT 10SM BKN042 19/09 A3002 RMK AO2 SLP164 T01940089 10194 20133 50001
KASH - Nashua/Boire Fld, New Hampshire, USA
Distance from station: SE 59mi, 95km
Updated: 04/21/2019 1:56pm
Overcast
Overcast
 Wind from ESE
Wind: ESE 9 mph , 15 km/h
Temperature: 66°F , 19°C
Dew Point: 57°F , 14°C
Humidity: 73%
Barometer: 30.01 inHg , 1016.3 hPa
Clouds: Overcast
Visibility: 10 miles , 16 km
Cloud details: Mostly cloudy 2500 ft
Overcast 8000 ft
2019/04/21 17:56 KASH 211756Z 12008KT 10SM BKN025 OVC080 19/14 A3001 RMK AO2 RAB01E15B32E53 SLP173 P0000 60000 T01890144 10189 20144 58007 $
KAQW - North Adams, Massachusetts, USA
Distance from station: SW 62mi, 99km
Updated: 04/21/2019 1:52pm
Overcast
Overcast
 Wind from SE
Wind: SE 13 mph , 20 km/h
Temperature: 63°F , 17°C
Dew Point: 52°F , 11°C
Humidity: 68%
Barometer: 29.99 inHg , 1015.6 hPa
Clouds: Overcast
Visibility: 10 miles , 16 km
Cloud details: Overcast 3500 ft
2019/04/21 17:52 KAQW 211752Z AUTO 14011KT 10SM OVC035 17/11 A2999 RMK AO2 SLP157 T01670106 10172 20133 53000
 
KGFL - Glens Falls, New York, USA
Distance from station: W 63mi, 101km
Updated: 04/21/2019 1:53pm
Mostly cloudy
Mostly cloudy
 Wind from SSE
Wind: SSE 12 mph , 19 km/h, Gust: 18 mph , 30 km/h
Temperature: 70°F , 21°C
Dew Point: 50°F , 10°C
Humidity: 50%
Barometer: 29.96 inHg , 1014.6 hPa
Clouds: Mostly cloudy
Visibility: 10 miles , 16 km
Cloud details: Mostly cloudy 5000 ft
2019/04/21 17:53 KGFL 211753Z AUTO 15010G16KT 130V200 10SM BKN050 21/10 A2996 RMK AO2 SLP147 T02110100 10217 20100 55005
KFIT - Fitchburg, Massachusetts, USA
Distance from station: SSE 65mi, 105km
Updated: 04/21/2019 2:25pm
Mostly cloudy
Mostly cloudy
 Wind from SE
Wind: SE 9 mph , 15 km/h
Temperature: 66°F , 19°C
Dew Point: 54°F , 12°C
Humidity: 64%
Barometer: 30.02 inHg , 1016.6 hPa
Clouds: Mostly cloudy
Visibility: 10 miles , 16 km
Cloud details: Few Clouds 2400 ft
Mostly cloudy 3200 ft
2019/04/21 18:25 KFIT 211825Z AUTO 14008KT 10SM FEW024 BKN032 19/12 A3002 RMK AO2 T01890122
KDAW - Rochester, New Hampshire, USA
Distance from station: E 73mi, 118km
Updated: 04/21/2019 1:51pm
Overcast
Overcast
 Wind from SSE
Wind: SSE 10 mph , 17 km/h
Temperature: 64°F , 18°C
Dew Point: 57°F , 14°C
Humidity: 78%
Barometer: 30.03 inHg , 1016.9 hPa
Clouds: Overcast
Visibility: 10 miles , 16 km
Cloud details: Few Clouds 1600 ft
Partly cloudy 7500 ft
Overcast 8500 ft
2019/04/21 17:51 KDAW 211751Z AUTO 16009KT 120V190 10SM FEW016 SCT075 OVC085 18/14 A3003 RMK AO2 SLP165 T01830139 10189 20133 58004
 
K1V4 - St. Johnsbury, Vermont, USA
Distance from station: NNE 74mi, 119km
Updated: 04/21/2019 1:54pm

 
Temperature: 66°F , 19°C
Dew Point: 48°F , 9°C
Humidity: 52%
Barometer: 29.97 inHg , 1014.9 hPa
2019/04/21 17:54 K1V4 211754Z AUTO 19/09 A2997 RMK AO1 SLP141 T01940094 10200 20117 58002
KLWM - Lawrence, Massachusetts, USA
Distance from station: SE 77mi, 124km
Updated: 04/21/2019 1:54pm
Mostly cloudy
Mostly cloudy
 Wind from ESE
Wind: ESE 6 mph , 9 km/h
Temperature: 64°F , 18°C
Dew Point: 55°F , 13°C
Humidity: 73%
Barometer: 30.04 inHg , 1017.3 hPa
Clouds: Mostly cloudy
Visibility: 10 miles , 16 km
Cloud details: Partly cloudy 7000 ft
Mostly cloudy 9000 ft
2019/04/21 17:54 KLWM 211754Z 12005KT 10SM SCT070 BKN090 18/13 A3004 RMK AO2 SLP173 60000 T01780128 10183 20156 50000



Flag Counter
free counter page views since 4/29/2009